createdAt,value
2023-05-07T00:00:20.069Z,11.20
2023-05-07T00:02:47.315Z,11.10
2023-05-07T00:05:14.632Z,11.20
2023-05-07T00:07:41.662Z,11.20
2023-05-07T00:10:08.988Z,11.20
2023-05-07T00:12:35.920Z,11.20
2023-05-07T00:15:03.684Z,11.10
2023-05-07T00:17:30.624Z,11.20
2023-05-07T00:19:57.233Z,11.20
2023-05-07T00:22:23.809Z,11.20
2023-05-07T00:24:50.425Z,11.30
2023-05-07T00:27:17.103Z,11.20
2023-05-07T00:29:43.731Z,11.20
2023-05-07T00:32:10.447Z,11.20
2023-05-07T00:34:37.096Z,11.30
2023-05-07T00:37:05.964Z,11.40
2023-05-07T00:39:33.196Z,11.30
2023-05-07T00:42:00.066Z,11.20
2023-05-07T00:44:26.908Z,11.20
2023-05-07T00:46:54.791Z,11.30
2023-05-07T00:49:21.337Z,11.30
2023-05-07T00:51:47.953Z,11.20
2023-05-07T00:54:14.586Z,11.30
2023-05-07T00:56:41.426Z,11.20
2023-05-07T00:59:08.061Z,11.20
2023-05-07T01:01:34.794Z,11.20
2023-05-07T01:04:01.515Z,11.20
2023-05-07T01:06:29.670Z,11.30
2023-05-07T01:08:58.377Z,11.30
2023-05-07T01:11:26.418Z,11.20
2023-05-07T01:13:53.262Z,11.30
2023-05-07T01:16:19.875Z,11.30
2023-05-07T01:18:49.123Z,11.30
2023-05-07T01:21:17.478Z,11.30
2023-05-07T01:23:44.813Z,11.20
2023-05-07T01:26:11.686Z,11.20
2023-05-07T01:28:38.277Z,11.20
2023-05-07T01:31:05.329Z,11.10
2023-05-07T01:33:34.551Z,11.10
2023-05-07T01:36:03.200Z,11.10
2023-05-07T01:38:30.294Z,11.10
2023-05-07T01:40:57.169Z,11.20
2023-05-07T01:43:23.771Z,11.20
2023-05-07T01:45:50.740Z,11.30
2023-05-07T01:48:18.868Z,11.10
2023-05-07T01:50:45.685Z,11.10
2023-05-07T01:53:12.317Z,11.00
2023-05-07T01:55:38.930Z,11.00
2023-05-07T01:58:05.668Z,11.00
2023-05-07T02:00:32.586Z,11.00
2023-05-07T02:02:59.706Z,10.80
2023-05-07T02:05:26.377Z,10.90
2023-05-07T02:07:52.968Z,11.10
2023-05-07T02:10:19.569Z,11.00
2023-05-07T02:12:46.242Z,10.80
2023-05-07T02:15:12.860Z,10.70
2023-05-07T02:17:41.023Z,10.90
2023-05-07T02:20:14.116Z,10.70
2023-05-07T02:22:40.752Z,10.90
2023-05-07T02:25:07.467Z,10.90
2023-05-07T02:27:34.261Z,10.90
2023-05-07T02:30:00.997Z,10.90
2023-05-07T02:32:27.618Z,10.80
2023-05-07T02:34:54.648Z,10.80
2023-05-07T02:37:21.283Z,10.80
2023-05-07T02:39:47.892Z,10.80
2023-05-07T02:42:14.449Z,10.90
2023-05-07T02:44:41.022Z,10.90
2023-05-07T02:47:09.552Z,10.70
2023-05-07T02:49:36.224Z,10.90
2023-05-07T02:52:02.813Z,10.80
2023-05-07T02:54:29.395Z,10.80
2023-05-07T02:56:56.244Z,10.90
2023-05-07T02:59:22.804Z,10.90
2023-05-07T03:01:49.571Z,10.90
2023-05-07T03:04:16.403Z,11.00
2023-05-07T03:06:43.091Z,11.00
2023-05-07T03:09:09.820Z,11.10
2023-05-07T03:11:36.685Z,11.20
2023-05-07T03:14:03.309Z,11.00
2023-05-07T03:16:30.013Z,10.90
2023-05-07T03:18:56.761Z,10.90
2023-05-07T03:21:23.461Z,10.80
2023-05-07T03:23:50.085Z,10.90
2023-05-07T03:26:16.678Z,11.00
2023-05-07T03:28:43.255Z,11.10
2023-05-07T03:31:09.929Z,11.10
2023-05-07T03:33:39.704Z,11.10
2023-05-07T03:36:06.441Z,11.00
2023-05-07T03:38:33.084Z,10.80
2023-05-07T03:40:59.698Z,10.80
2023-05-07T03:43:26.290Z,10.70
2023-05-07T03:45:52.929Z,10.70
2023-05-07T03:48:19.563Z,10.90
2023-05-07T03:50:46.312Z,10.90
2023-05-07T03:53:12.867Z,11.10
2023-05-07T03:55:39.686Z,10.90
2023-05-07T03:58:06.559Z,11.00
2023-05-07T04:00:39.220Z,11.10
2023-05-07T04:03:05.975Z,11.20
2023-05-07T04:05:32.664Z,11.00
2023-05-07T04:07:59.778Z,11.00
2023-05-07T04:10:26.472Z,10.90
2023-05-07T04:12:53.093Z,10.90
2023-05-07T04:15:19.757Z,10.80
2023-05-07T04:17:46.536Z,10.80
2023-05-07T04:20:15.829Z,10.80
2023-05-07T04:22:42.558Z,10.90
2023-05-07T04:25:12.586Z,11.10
2023-05-07T04:27:39.182Z,11.10
2023-05-07T04:30:06.131Z,11.10
2023-05-07T04:32:32.840Z,11.00
2023-05-07T04:34:59.449Z,11.10
2023-05-07T04:37:26.796Z,11.20
2023-05-07T04:39:53.358Z,11.10
2023-05-07T04:42:19.935Z,10.90
2023-05-07T04:44:46.576Z,11.00
2023-05-07T04:47:13.292Z,11.10
2023-05-07T04:49:39.940Z,11.00
2023-05-07T04:52:06.505Z,11.20
2023-05-07T04:54:33.092Z,11.10
2023-05-07T04:56:59.706Z,11.00
2023-05-07T04:59:26.289Z,11.00
2023-05-07T05:01:53.006Z,11.00
2023-05-07T05:04:19.707Z,11.00
2023-05-07T05:06:46.276Z,10.90
2023-05-07T05:09:12.904Z,10.90
2023-05-07T05:11:39.778Z,10.90
2023-05-07T05:14:06.394Z,10.90
2023-05-07T05:16:33.152Z,10.90
2023-05-07T05:19:00.433Z,11.00
2023-05-07T05:21:27.284Z,10.90
2023-05-07T05:23:53.941Z,11.10
2023-05-07T05:26:22.097Z,11.20
2023-05-07T05:28:48.756Z,11.30
2023-05-07T05:31:15.378Z,11.30
2023-05-07T05:33:42.088Z,11.40
2023-05-07T05:36:10.820Z,11.40
2023-05-07T05:38:37.558Z,11.50
2023-05-07T05:41:04.194Z,11.50
2023-05-07T05:43:31.008Z,11.60
2023-05-07T05:45:58.642Z,11.30
2023-05-07T05:48:25.333Z,11.50
2023-05-07T05:50:52.215Z,11.60
2023-05-07T05:53:18.893Z,11.70
2023-05-07T05:55:45.483Z,11.70
2023-05-07T05:58:12.166Z,11.80
2023-05-07T06:00:38.790Z,11.60
2023-05-07T06:03:05.565Z,11.50
2023-05-07T06:05:32.167Z,11.60
2023-05-07T06:07:58.803Z,11.90
2023-05-07T06:10:25.472Z,12.00
2023-05-07T06:12:52.090Z,12.10
2023-05-07T06:15:18.723Z,12.30
2023-05-07T06:17:45.461Z,12.20
2023-05-07T06:20:12.353Z,12.30
2023-05-07T06:22:39.272Z,12.50
2023-05-07T06:25:06.105Z,12.50
2023-05-07T06:27:33.080Z,12.60
2023-05-07T06:29:59.664Z,12.70
2023-05-07T06:32:26.340Z,12.70
2023-05-07T06:34:53.039Z,12.70
2023-05-07T06:37:19.620Z,12.60
2023-05-07T06:39:46.211Z,12.60
2023-05-07T06:42:12.824Z,12.60
2023-05-07T06:44:39.403Z,12.80
2023-05-07T06:47:06.337Z,13.10
2023-05-07T06:49:33.520Z,13.10
2023-05-07T06:52:00.173Z,13.00
2023-05-07T06:54:26.796Z,12.80
2023-05-07T06:56:53.379Z,12.90
2023-05-07T06:59:20.453Z,12.90
2023-05-07T07:01:47.088Z,12.90
2023-05-07T07:04:13.861Z,12.70
2023-05-07T07:06:40.481Z,12.80
2023-05-07T07:09:07.108Z,13.00
2023-05-07T07:11:33.794Z,13.30
2023-05-07T07:14:00.547Z,13.50
2023-05-07T07:16:27.239Z,13.70
2023-05-07T07:18:53.842Z,13.70
2023-05-07T07:21:20.868Z,13.70
2023-05-07T07:23:47.460Z,13.60
2023-05-07T07:26:14.091Z,13.30
2023-05-07T07:28:46.583Z,13.50
2023-05-07T07:31:13.690Z,13.90
2023-05-07T07:33:40.369Z,14.40
2023-05-07T07:36:07.742Z,14.60
2023-05-07T07:38:35.023Z,14.60
2023-05-07T07:41:02.338Z,14.50
2023-05-07T07:43:28.957Z,14.60
2023-05-07T07:45:55.638Z,14.30
2023-05-07T07:48:22.431Z,14.70
2023-05-07T07:50:52.304Z,15.10
2023-05-07T07:53:19.239Z,15.40
2023-05-07T07:55:45.900Z,15.20
2023-05-07T07:58:12.593Z,15.10
2023-05-07T08:00:39.200Z,15.10
2023-05-07T08:03:06.219Z,15.20
2023-05-07T08:05:33.003Z,15.20
2023-05-07T08:07:59.711Z,15.00
2023-05-07T08:10:26.399Z,15.30
2023-05-07T08:12:53.135Z,15.30
2023-05-07T08:15:19.847Z,15.40
2023-05-07T08:17:46.473Z,15.50
2023-05-07T08:20:13.398Z,15.50
2023-05-07T08:22:41.148Z,15.20
2023-05-07T08:25:08.014Z,15.20
2023-05-07T08:27:34.606Z,15.50
2023-05-07T08:30:01.300Z,15.20
2023-05-07T08:32:28.685Z,15.20
2023-05-07T08:34:55.780Z,15.50
2023-05-07T08:37:22.402Z,15.40
2023-05-07T08:39:48.962Z,15.80
2023-05-07T08:42:17.413Z,16.10
2023-05-07T08:44:44.626Z,16.10
2023-05-07T08:47:11.262Z,16.10
2023-05-07T08:49:37.860Z,16.30
2023-05-07T08:52:04.536Z,16.50
2023-05-07T08:54:31.790Z,16.40
2023-05-07T08:56:58.381Z,16.00
2023-05-07T08:59:24.977Z,15.70
2023-05-07T09:01:51.646Z,16.20
2023-05-07T09:04:18.512Z,16.60
2023-05-07T09:06:45.246Z,16.80
2023-05-07T09:09:14.981Z,17.10
2023-05-07T09:11:42.328Z,17.10
2023-05-07T09:14:09.631Z,17.40
2023-05-07T09:16:36.601Z,17.60
2023-05-07T09:19:03.320Z,17.30
2023-05-07T09:21:30.904Z,17.30
2023-05-07T09:23:57.573Z,17.40
2023-05-07T09:26:24.738Z,17.70
2023-05-07T09:28:51.682Z,17.40
2023-05-07T09:31:21.161Z,17.00
2023-05-07T09:33:48.322Z,17.00
2023-05-07T09:36:14.989Z,17.20
2023-05-07T09:38:42.382Z,17.00
2023-05-07T09:41:12.813Z,17.20
2023-05-07T09:43:39.872Z,17.50
2023-05-07T09:46:13.235Z,16.90
2023-05-07T09:48:41.069Z,16.90
2023-05-07T09:51:12.508Z,17.60
2023-05-07T09:53:40.222Z,17.90
2023-05-07T09:56:06.997Z,17.30
2023-05-07T09:58:34.442Z,18.30
2023-05-07T10:01:01.794Z,19.60
2023-05-07T10:03:29.683Z,19.30
2023-05-07T10:05:57.302Z,18.80
2023-05-07T10:08:24.043Z,18.70
2023-05-07T10:10:51.068Z,18.50
2023-05-07T10:13:18.333Z,18.70
2023-05-07T10:15:45.486Z,19.00
2023-05-07T10:18:13.165Z,19.60
2023-05-07T10:20:40.465Z,20.10
2023-05-07T10:23:07.927Z,20.60
2023-05-07T10:25:34.579Z,20.30
2023-05-07T10:28:03.448Z,19.80
2023-05-07T10:30:31.169Z,19.30
2023-05-07T10:33:06.833Z,18.20
2023-05-07T10:35:38.728Z,18.30
2023-05-07T10:38:05.854Z,18.20
2023-05-07T10:40:32.769Z,18.10
2023-05-07T10:43:01.183Z,18.00
2023-05-07T10:45:28.500Z,18.30
2023-05-07T10:50:44.050Z,18.00
2023-05-07T10:53:19.957Z,18.00
2023-05-07T10:55:48.082Z,17.90
2023-05-07T11:01:00.013Z,17.80
2023-05-07T11:03:27.268Z,18.00
2023-05-07T11:06:09.067Z,18.50
2023-05-07T11:08:53.997Z,18.20
2023-05-07T11:11:20.764Z,18.20
2023-05-07T11:13:48.171Z,18.40
2023-05-07T11:16:19.026Z,18.90
2023-05-07T11:18:50.344Z,19.10
2023-05-07T11:21:32.827Z,19.00
2023-05-07T11:23:59.872Z,19.50
2023-05-07T11:26:27.200Z,19.60
2023-05-07T11:28:54.372Z,18.80
2023-05-07T11:31:22.137Z,19.10
2023-05-07T11:33:49.081Z,19.40
2023-05-07T11:36:16.242Z,20.40
2023-05-07T11:38:42.830Z,20.60
2023-05-07T11:41:09.724Z,20.90
2023-05-07T11:43:36.636Z,21.20
2023-05-07T11:46:10.438Z,20.90
2023-05-07T11:48:37.252Z,20.80
2023-05-07T11:51:09.652Z,20.90
2023-05-07T11:53:37.393Z,21.10
2023-05-07T11:56:07.879Z,21.50
2023-05-07T11:58:34.443Z,21.80
2023-05-07T12:01:01.162Z,21.70
2023-05-07T12:03:29.731Z,21.40
2023-05-07T12:05:58.509Z,21.80
2023-05-07T12:08:25.184Z,21.90
2023-05-07T12:10:52.353Z,21.40
2023-05-07T12:13:19.859Z,20.80
2023-05-07T12:15:46.605Z,20.70
2023-05-07T12:18:14.024Z,20.90
2023-05-07T12:20:40.832Z,20.70
2023-05-07T12:23:07.756Z,20.40
2023-05-07T12:25:40.261Z,20.80
2023-05-07T12:28:07.054Z,21.10
2023-05-07T12:30:37.690Z,21.40
2023-05-07T12:33:04.323Z,21.50
2023-05-07T12:35:31.717Z,21.70
2023-05-07T12:38:00.777Z,22.20
2023-05-07T12:40:41.243Z,22.30
2023-05-07T12:43:07.975Z,22.40
2023-05-07T12:45:42.188Z,22.50
2023-05-07T12:48:10.786Z,21.30
2023-05-07T12:50:37.548Z,20.80
2023-05-07T12:53:08.832Z,21.10
2023-05-07T12:55:51.479Z,21.60
2023-05-07T12:58:22.012Z,21.60
2023-05-07T13:00:49.650Z,21.30
2023-05-07T13:03:42.640Z,21.20
2023-05-07T13:06:16.088Z,20.90
2023-05-07T13:08:45.728Z,21.00
2023-05-07T13:11:12.905Z,20.60
2023-05-07T13:13:40.778Z,20.50
2023-05-07T13:16:08.689Z,20.80
2023-05-07T13:18:35.720Z,21.20
2023-05-07T13:21:02.662Z,21.30
2023-05-07T13:23:29.638Z,21.30
2023-05-07T13:25:56.951Z,20.70
2023-05-07T13:28:27.104Z,21.00
2023-05-07T13:30:55.432Z,20.80
2023-05-07T13:33:22.149Z,21.00
2023-05-07T13:35:49.008Z,20.80
2023-05-07T13:38:16.833Z,20.20
2023-05-07T13:40:43.457Z,20.40
2023-05-07T13:43:10.077Z,19.80
2023-05-07T13:45:36.764Z,19.40
2023-05-07T13:48:03.923Z,19.70
2023-05-07T13:50:30.952Z,19.80
2023-05-07T13:52:57.723Z,19.90
2023-05-07T13:55:25.317Z,19.90
2023-05-07T13:57:56.264Z,19.90
2023-05-07T14:00:23.351Z,20.30
2023-05-07T14:02:50.094Z,20.40
2023-05-07T14:05:16.809Z,19.90
2023-05-07T14:07:43.390Z,20.20
2023-05-07T14:10:11.011Z,20.40
2023-05-07T14:12:38.108Z,20.60
2023-05-07T14:15:04.934Z,20.50
2023-05-07T14:17:31.574Z,20.40
2023-05-07T14:19:58.215Z,20.30
2023-05-07T14:22:24.879Z,20.50
2023-05-07T14:25:03.220Z,20.30
2023-05-07T14:27:32.858Z,20.60
2023-05-07T14:29:59.496Z,20.50
2023-05-07T14:32:26.159Z,20.00
2023-05-07T14:34:52.850Z,19.80
2023-05-07T14:37:20.890Z,19.70
2023-05-07T14:39:50.240Z,20.50
2023-05-07T14:42:18.062Z,22.20
2023-05-07T14:44:46.258Z,23.30
2023-05-07T14:47:13.003Z,23.00
2023-05-07T14:49:39.687Z,22.80
2023-05-07T14:52:07.160Z,22.70
2023-05-07T14:54:38.573Z,22.70
2023-05-07T14:57:06.268Z,23.80
2023-05-07T14:59:32.857Z,23.00
2023-05-07T15:01:59.475Z,22.50
2023-05-07T15:04:26.194Z,22.90
2023-05-07T15:06:54.691Z,22.90
2023-05-07T15:09:21.282Z,22.10
2023-05-07T15:11:47.856Z,21.30
2023-05-07T15:14:14.458Z,20.60
2023-05-07T15:16:41.201Z,20.20
2023-05-07T15:19:07.837Z,19.90
2023-05-07T15:21:35.767Z,19.60
2023-05-07T15:24:02.783Z,19.60
2023-05-07T15:26:30.166Z,19.50
2023-05-07T15:28:58.213Z,19.40
2023-05-07T15:31:26.092Z,19.30
2023-05-07T15:33:53.144Z,19.10
2023-05-07T15:36:20.733Z,18.90
2023-05-07T15:38:47.368Z,18.70
2023-05-07T15:41:14.056Z,18.70
2023-05-07T15:43:48.099Z,18.60
2023-05-07T15:46:18.427Z,18.60
2023-05-07T15:48:45.119Z,18.50
2023-05-07T15:51:12.016Z,18.40
2023-05-07T15:53:38.811Z,18.30
2023-05-07T15:56:05.508Z,18.30
2023-05-07T15:58:32.143Z,18.30
2023-05-07T16:01:00.760Z,18.90
2023-05-07T16:03:27.755Z,19.00
2023-05-07T16:05:54.582Z,18.90
2023-05-07T16:08:21.213Z,18.70
2023-05-07T16:10:47.826Z,18.50
2023-05-07T16:13:14.546Z,18.30
2023-05-07T16:15:41.240Z,18.20
2023-05-07T16:18:08.257Z,18.10
2023-05-07T16:20:34.914Z,18.00
2023-05-07T16:23:01.485Z,17.90
2023-05-07T16:25:28.116Z,17.90
2023-05-07T16:27:55.338Z,18.00
2023-05-07T16:30:22.222Z,18.10
2023-05-07T16:32:48.829Z,18.10
2023-05-07T16:35:15.531Z,18.10
2023-05-07T16:37:45.043Z,18.00
2023-05-07T16:40:12.593Z,17.90
2023-05-07T16:42:39.374Z,17.80
2023-05-07T16:45:06.727Z,17.70
2023-05-07T16:47:33.410Z,17.70
2023-05-07T16:50:05.577Z,17.70
2023-05-07T16:52:32.475Z,17.80
2023-05-07T16:55:01.238Z,17.70
2023-05-07T16:57:29.158Z,17.60
2023-05-07T16:59:55.960Z,17.60
2023-05-07T17:02:22.671Z,17.60
2023-05-07T17:04:49.365Z,17.60
2023-05-07T17:07:16.328Z,17.60
2023-05-07T17:09:42.965Z,17.60
2023-05-07T17:12:09.572Z,17.50
2023-05-07T17:14:36.171Z,17.50
2023-05-07T17:17:02.776Z,17.50
2023-05-07T17:19:29.364Z,17.50
2023-05-07T17:21:55.933Z,17.40
2023-05-07T17:24:22.532Z,17.20
2023-05-07T17:26:49.141Z,16.80
2023-05-07T17:29:15.843Z,16.60
2023-05-07T17:31:42.521Z,16.50
2023-05-07T17:34:09.232Z,16.50
2023-05-07T17:36:35.866Z,16.60
2023-05-07T17:39:02.878Z,16.60
2023-05-07T17:41:29.515Z,16.50
2023-05-07T17:43:56.089Z,16.40
2023-05-07T17:46:22.856Z,16.30
2023-05-07T17:48:49.660Z,16.20
2023-05-07T17:51:16.578Z,16.10
2023-05-07T17:53:43.196Z,16.00
2023-05-07T17:56:09.898Z,15.90
2023-05-07T17:58:42.733Z,15.90
2023-05-07T18:01:23.235Z,15.80
2023-05-07T18:03:50.022Z,15.70
2023-05-07T18:06:19.155Z,15.70
2023-05-07T18:08:45.789Z,15.60
2023-05-07T18:11:12.401Z,15.60
2023-05-07T18:13:39.103Z,15.70
2023-05-07T18:16:06.056Z,15.60
2023-05-07T18:18:35.198Z,15.60
2023-05-07T18:21:02.382Z,15.40
2023-05-07T18:23:28.932Z,15.30
2023-05-07T18:25:55.496Z,15.20
2023-05-07T18:28:22.094Z,15.00
2023-05-07T18:30:48.681Z,15.00
2023-05-07T18:33:15.371Z,15.00
2023-05-07T18:35:42.075Z,15.10
2023-05-07T18:38:08.745Z,15.20
2023-05-07T18:40:35.303Z,15.10
2023-05-07T18:43:06.523Z,15.20
2023-05-07T18:45:33.474Z,15.20
2023-05-07T18:48:00.309Z,15.10
2023-05-07T18:50:27.032Z,15.10
2023-05-07T18:52:53.628Z,15.00
2023-05-07T18:55:21.986Z,15.00
2023-05-07T18:57:48.909Z,15.00
2023-05-07T19:00:15.819Z,15.00
2023-05-07T19:02:42.538Z,15.10
2023-05-07T19:05:09.308Z,15.10
2023-05-07T19:07:35.964Z,15.00
2023-05-07T19:10:05.984Z,15.00
2023-05-07T19:12:33.251Z,15.00
2023-05-07T19:14:59.860Z,14.90
2023-05-07T19:17:26.544Z,14.70
2023-05-07T19:19:53.234Z,14.70
2023-05-07T19:22:20.644Z,14.60
2023-05-07T19:24:47.342Z,14.50
2023-05-07T19:27:13.999Z,14.50
2023-05-07T19:29:40.646Z,14.30
2023-05-07T19:32:07.439Z,14.20
2023-05-07T19:34:34.222Z,14.20
2023-05-07T19:37:00.830Z,14.10
2023-05-07T19:39:27.786Z,14.00
2023-05-07T19:41:54.544Z,14.00
2023-05-07T19:44:21.171Z,14.10
2023-05-07T19:46:48.371Z,14.00
2023-05-07T19:49:14.968Z,14.10
2023-05-07T19:51:41.544Z,14.00
2023-05-07T19:54:08.270Z,14.10
2023-05-07T19:56:34.976Z,14.10
2023-05-07T19:59:01.592Z,14.10
2023-05-07T20:01:28.904Z,14.10
2023-05-07T20:03:55.876Z,14.10
2023-05-07T20:06:23.354Z,14.10
2023-05-07T20:08:50.222Z,14.00
2023-05-07T20:11:16.837Z,14.10
2023-05-07T20:13:43.462Z,14.00
2023-05-07T20:16:10.171Z,14.00
2023-05-07T20:18:36.811Z,14.00
2023-05-07T20:21:04.817Z,13.90
2023-05-07T20:23:31.499Z,13.90
2023-05-07T20:25:58.307Z,13.80
2023-05-07T20:28:25.235Z,13.70
2023-05-07T20:30:51.845Z,13.60
2023-05-07T20:33:18.434Z,13.70
2023-05-07T20:35:45.146Z,13.70
2023-05-07T20:38:11.813Z,13.80
2023-05-07T20:40:38.528Z,13.80
2023-05-07T20:43:06.019Z,13.70
2023-05-07T20:45:33.154Z,13.60
2023-05-07T20:47:59.983Z,13.50
2023-05-07T20:50:27.279Z,13.40
2023-05-07T20:52:53.885Z,13.50
2023-05-07T20:55:20.487Z,13.40
2023-05-07T20:57:47.156Z,13.40
2023-05-07T21:00:14.385Z,13.40
2023-05-07T21:02:41.298Z,13.40
2023-05-07T21:05:08.131Z,13.40
2023-05-07T21:07:34.785Z,13.50
2023-05-07T21:10:01.449Z,13.50
2023-05-07T21:12:28.027Z,13.40
2023-05-07T21:14:55.224Z,13.50
2023-05-07T21:17:21.983Z,13.40
2023-05-07T21:19:49.622Z,13.50
2023-05-07T21:22:16.196Z,13.50
2023-05-07T21:24:42.839Z,13.40
2023-05-07T21:27:09.871Z,13.10
2023-05-07T21:29:36.807Z,12.90
2023-05-07T21:32:03.756Z,12.80
2023-05-07T21:34:30.585Z,12.70
2023-05-07T21:36:57.225Z,12.70
2023-05-07T21:39:24.737Z,12.80
2023-05-07T21:41:51.338Z,12.70
2023-05-07T21:44:17.996Z,12.70
2023-05-07T21:46:44.770Z,12.80
2023-05-07T21:49:11.890Z,12.60
2023-05-07T21:51:38.499Z,12.70
2023-05-07T21:54:05.242Z,12.70
2023-05-07T21:56:31.875Z,12.70
2023-05-07T21:58:58.443Z,12.70
2023-05-07T22:01:25.148Z,12.60
2023-05-07T22:03:52.026Z,12.60
2023-05-07T22:06:21.710Z,12.70
2023-05-07T22:08:49.065Z,12.50
2023-05-07T22:11:15.832Z,12.40
2023-05-07T22:13:42.654Z,12.50
2023-05-07T22:16:09.347Z,12.50
2023-05-07T22:18:36.021Z,12.40
2023-05-07T22:21:03.118Z,12.50
2023-05-07T22:23:29.740Z,12.50
2023-05-07T22:25:58.364Z,12.40
2023-05-07T22:28:25.036Z,12.30
2023-05-07T22:30:51.749Z,12.30
2023-05-07T22:33:18.375Z,12.40
2023-05-07T22:35:44.965Z,12.40
2023-05-07T22:38:11.631Z,12.40
2023-05-07T22:40:38.250Z,12.30
2023-05-07T22:43:04.820Z,12.30
2023-05-07T22:45:31.483Z,12.30
2023-05-07T22:47:58.127Z,12.30
2023-05-07T22:50:24.725Z,12.20
2023-05-07T22:52:51.331Z,12.20
2023-05-07T22:55:18.033Z,12.10
2023-05-07T22:57:44.617Z,12.10
2023-05-07T23:00:12.212Z,12.10
2023-05-07T23:02:39.192Z,11.90
2023-05-07T23:05:05.999Z,11.90
2023-05-07T23:07:32.584Z,11.90
2023-05-07T23:09:59.178Z,11.90
2023-05-07T23:12:25.804Z,11.90
2023-05-07T23:14:52.479Z,11.80
2023-05-07T23:17:19.156Z,11.90
2023-05-07T23:19:45.858Z,12.00
2023-05-07T23:22:12.588Z,11.90
2023-05-07T23:24:39.404Z,11.90
2023-05-07T23:27:06.608Z,11.80
2023-05-07T23:29:33.421Z,11.60
2023-05-07T23:32:00.370Z,11.60
2023-05-07T23:34:27.018Z,11.70
2023-05-07T23:36:53.800Z,11.70
2023-05-07T23:39:20.557Z,11.70
2023-05-07T23:41:47.235Z,11.80
2023-05-07T23:44:16.260Z,11.70
2023-05-07T23:46:43.776Z,11.70
2023-05-07T23:49:10.464Z,11.60
2023-05-07T23:51:37.196Z,11.70
2023-05-07T23:54:03.816Z,11.60
2023-05-07T23:56:30.498Z,11.50
2023-05-07T23:58:57.205Z,11.50
